createdAt,value
2022-12-09T00:00:23.817Z,8.65
2022-12-09T00:02:51.763Z,8.52
2022-12-09T00:05:20.033Z,8.70
2022-12-09T00:07:48.203Z,8.82
2022-12-09T00:10:17.614Z,9.50
2022-12-09T00:12:45.522Z,10.20
2022-12-09T00:15:13.550Z,9.45
2022-12-09T00:17:41.480Z,10.73
2022-12-09T00:20:10.876Z,9.18
2022-12-09T00:22:39.346Z,9.73
2022-12-09T00:25:08.283Z,10.73
2022-12-09T00:27:37.747Z,9.90
2022-12-09T00:30:06.850Z,10.63
2022-12-09T00:32:35.214Z,10.20
2022-12-09T00:35:04.437Z,10.40
2022-12-09T00:37:32.379Z,11.20
2022-12-09T00:40:00.500Z,10.68
2022-12-09T00:42:28.622Z,11.18
2022-12-09T00:44:57.841Z,10.60
2022-12-09T00:47:26.553Z,10.63
2022-12-09T00:49:54.643Z,10.38
2022-12-09T00:52:22.518Z,11.10
2022-12-09T00:54:50.413Z,12.20
2022-12-09T00:57:18.729Z,11.13
2022-12-09T00:59:47.250Z,12.48
2022-12-09T01:02:16.890Z,11.35
2022-12-09T01:04:45.424Z,11.65
2022-12-09T01:07:15.171Z,11.13
2022-12-09T01:09:43.259Z,12.75
2022-12-09T01:12:11.239Z,12.48
2022-12-09T01:14:39.210Z,12.85
2022-12-09T01:17:07.516Z,12.45
2022-12-09T01:19:37.285Z,12.18
2022-12-09T01:22:05.202Z,12.90
2022-12-09T01:24:33.153Z,12.43
2022-12-09T01:27:01.269Z,12.90
2022-12-09T01:29:29.386Z,12.38
2022-12-09T01:31:57.416Z,12.82
2022-12-09T01:34:26.819Z,13.32
2022-12-09T01:36:56.288Z,13.02
2022-12-09T01:39:24.573Z,13.98
2022-12-09T01:41:52.947Z,12.38
2022-12-09T01:44:23.153Z,13.10
2022-12-09T01:46:55.071Z,13.30
2022-12-09T01:49:26.025Z,13.00
2022-12-09T01:52:03.952Z,12.93
2022-12-09T01:54:33.094Z,12.88
2022-12-09T01:57:01.086Z,12.43
2022-12-09T01:59:30.488Z,14.10
2022-12-09T02:02:00.986Z,12.35
2022-12-09T02:04:33.649Z,11.75
2022-12-09T02:07:07.161Z,12.88
2022-12-09T02:09:35.628Z,12.63
2022-12-09T02:12:13.623Z,13.80
2022-12-09T02:14:44.151Z,13.00
2022-12-09T02:17:28.935Z,12.30
2022-12-09T02:20:06.363Z,13.02
2022-12-09T02:22:42.271Z,12.38
2022-12-09T02:25:23.180Z,13.18
2022-12-09T02:28:07.412Z,12.32
2022-12-09T02:30:42.136Z,13.30
2022-12-09T02:33:27.543Z,12.95
2022-12-09T02:36:03.360Z,12.57
2022-12-09T02:38:34.661Z,12.27
2022-12-09T02:41:06.924Z,12.88
2022-12-09T02:43:45.166Z,12.57
2022-12-09T02:46:21.229Z,12.48
2022-12-09T02:48:54.244Z,12.23
2022-12-09T02:51:27.290Z,12.07
2022-12-09T02:56:26.254Z,11.57
2022-12-09T02:58:54.609Z,10.98
2022-12-09T03:01:33.527Z,11.23
2022-12-09T03:04:03.874Z,12.27
2022-12-09T03:06:41.628Z,11.23
2022-12-09T03:09:12.979Z,11.32
2022-12-09T03:11:42.254Z,10.77
2022-12-09T03:14:13.909Z,11.55
2022-12-09T03:16:47.089Z,10.48
2022-12-09T03:19:21.488Z,10.98
2022-12-09T03:21:55.402Z,10.77
2022-12-09T03:24:28.875Z,10.40
2022-12-09T03:26:59.851Z,10.82
2022-12-09T03:29:30.357Z,10.73
2022-12-09T03:32:00.282Z,9.75
2022-12-09T03:34:35.704Z,9.70
2022-12-09T03:37:08.253Z,10.27
2022-12-09T03:39:40.148Z,11.50
2022-12-09T03:42:16.570Z,10.80
2022-12-09T03:44:49.963Z,11.43
2022-12-09T03:47:18.091Z,10.80
2022-12-09T03:49:46.258Z,10.38
2022-12-09T03:52:20.325Z,11.88
2022-12-09T03:54:51.885Z,10.57
2022-12-09T03:57:21.402Z,10.27
2022-12-09T03:59:55.348Z,10.38
2022-12-09T04:02:23.749Z,11.23
2022-12-09T04:04:52.533Z,10.75
2022-12-09T04:07:22.195Z,10.70
2022-12-09T04:09:50.163Z,10.43
2022-12-09T04:12:18.862Z,11.25
2022-12-09T04:14:47.102Z,9.88
2022-12-09T04:17:15.389Z,10.75
2022-12-09T04:19:43.325Z,11.20
2022-12-09T04:22:11.272Z,10.95
2022-12-09T04:24:40.555Z,10.88
2022-12-09T04:27:08.564Z,10.68
2022-12-09T04:29:36.474Z,10.15
2022-12-09T04:32:04.476Z,11.38
2022-12-09T04:34:33.993Z,10.82
2022-12-09T04:37:02.016Z,11.23
2022-12-09T04:39:30.253Z,10.70
2022-12-09T04:41:59.872Z,12.48
2022-12-09T04:44:27.928Z,11.80
2022-12-09T04:46:55.884Z,10.68
2022-12-09T04:49:24.402Z,10.27
2022-12-09T04:51:52.290Z,11.15
2022-12-09T04:54:20.201Z,11.32
2022-12-09T04:56:50.332Z,11.45
2022-12-09T04:59:19.822Z,11.98
2022-12-09T05:01:47.930Z,10.82
2022-12-09T05:04:16.451Z,11.88
2022-12-09T05:06:44.908Z,11.48
2022-12-09T05:09:14.341Z,10.90
2022-12-09T05:11:42.666Z,12.10
2022-12-09T05:14:10.781Z,11.32
2022-12-09T05:16:40.548Z,11.55
2022-12-09T05:19:08.665Z,11.00
2022-12-09T05:21:37.447Z,11.90
2022-12-09T05:24:06.342Z,9.98
2022-12-09T05:26:34.508Z,10.82
2022-12-09T05:29:02.540Z,10.77
2022-12-09T05:31:31.183Z,11.10
2022-12-09T05:34:00.650Z,11.00
2022-12-09T05:36:29.104Z,11.68
2022-12-09T05:38:57.261Z,11.32
2022-12-09T05:41:26.283Z,10.73
2022-12-09T05:43:54.292Z,11.52
2022-12-09T05:46:22.935Z,10.80
2022-12-09T05:48:51.631Z,11.45
2022-12-09T05:51:24.815Z,11.40
2022-12-09T05:53:53.977Z,11.50
2022-12-09T05:56:23.533Z,11.90
2022-12-09T05:58:53.314Z,11.18
2022-12-09T06:01:22.264Z,10.93
2022-12-09T06:03:52.129Z,12.27
2022-12-09T06:06:23.970Z,11.02
2022-12-09T06:08:56.361Z,10.40
2022-12-09T06:11:25.040Z,8.10
2022-12-09T06:13:53.704Z,10.90
2022-12-09T06:16:23.388Z,11.25
2022-12-09T06:18:51.997Z,12.05
2022-12-09T06:21:22.721Z,11.23
2022-12-09T06:23:51.662Z,10.65
2022-12-09T06:26:22.160Z,10.23
2022-12-09T06:28:50.842Z,11.45
2022-12-09T06:31:19.723Z,10.68
2022-12-09T06:33:57.165Z,9.48
2022-12-09T06:36:29.379Z,10.68
2022-12-09T06:39:04.537Z,10.52
2022-12-09T06:41:37.972Z,10.55
2022-12-09T06:44:06.186Z,11.57
2022-12-09T06:46:34.549Z,10.98
2022-12-09T06:49:02.725Z,10.77
2022-12-09T06:51:32.099Z,10.63
2022-12-09T06:54:00.410Z,11.25
2022-12-09T06:56:28.438Z,11.55
2022-12-09T06:58:56.952Z,11.90
2022-12-09T07:01:26.742Z,11.93
2022-12-09T07:03:57.041Z,12.38
2022-12-09T07:06:29.132Z,11.90
2022-12-09T07:09:02.302Z,9.17
2022-12-09T07:11:31.090Z,13.43
2022-12-09T07:13:59.909Z,11.55
2022-12-09T07:16:29.314Z,12.30
2022-12-09T07:18:58.354Z,11.52
2022-12-09T07:21:26.944Z,11.73
2022-12-09T07:23:55.424Z,12.35
2022-12-09T07:26:26.328Z,12.40
2022-12-09T07:28:54.402Z,13.10
2022-12-09T07:31:30.315Z,13.05
2022-12-09T07:34:00.015Z,15.32
2022-12-09T07:36:30.947Z,12.95
2022-12-09T07:39:00.980Z,11.80
2022-12-09T07:41:30.970Z,13.30
2022-12-09T07:43:59.220Z,13.55
2022-12-09T07:46:28.768Z,13.30
2022-12-09T07:48:58.662Z,13.80
2022-12-09T07:51:27.019Z,12.55
2022-12-09T07:53:55.662Z,13.07
2022-12-09T07:56:24.771Z,13.35
2022-12-09T07:58:54.593Z,12.90
2022-12-09T08:01:25.377Z,14.15
2022-12-09T08:03:54.481Z,13.20
2022-12-09T08:06:25.917Z,14.55
2022-12-09T08:08:54.910Z,13.02
2022-12-09T08:11:24.596Z,13.23
2022-12-09T08:13:56.997Z,15.23
2022-12-09T08:16:25.904Z,14.30
2022-12-09T08:18:55.414Z,13.95
2022-12-09T08:21:25.636Z,14.38
2022-12-09T08:23:55.576Z,14.77
2022-12-09T08:26:25.536Z,16.10
2022-12-09T08:28:55.702Z,14.10
2022-12-09T08:31:26.108Z,13.93
2022-12-09T08:33:55.705Z,15.40
2022-12-09T08:36:26.450Z,14.05
2022-12-09T08:38:55.415Z,14.88
2022-12-09T08:41:35.931Z,14.85
2022-12-09T08:44:08.828Z,14.07
2022-12-09T08:46:39.429Z,15.27
2022-12-09T08:49:08.283Z,14.23
2022-12-09T08:51:36.634Z,14.77
2022-12-09T08:54:06.785Z,15.95
2022-12-09T08:56:35.005Z,15.05
2022-12-09T08:59:04.015Z,15.02
2022-12-09T09:01:35.884Z,15.43
2022-12-09T09:04:06.812Z,15.03
2022-12-09T09:06:36.236Z,13.20
2022-12-09T09:09:05.013Z,14.70
2022-12-09T09:11:33.475Z,13.30
2022-12-09T09:14:04.392Z,13.88
2022-12-09T09:16:34.651Z,13.75
2022-12-09T09:19:05.841Z,12.68
2022-12-09T09:21:35.737Z,13.07
2022-12-09T09:24:08.691Z,13.23
2022-12-09T09:26:40.144Z,13.98
2022-12-09T09:29:08.567Z,13.00
2022-12-09T09:31:38.284Z,13.13
2022-12-09T09:34:06.546Z,14.20
2022-12-09T09:36:34.762Z,12.95
2022-12-09T09:39:03.151Z,13.63
2022-12-09T09:41:43.722Z,13.75
2022-12-09T09:44:19.947Z,14.32
2022-12-09T09:46:51.659Z,12.82
2022-12-09T09:49:27.914Z,14.20
2022-12-09T09:51:56.362Z,14.93
2022-12-09T09:54:24.374Z,13.63
2022-12-09T09:57:00.036Z,12.77
2022-12-09T09:59:39.332Z,12.73
2022-12-09T10:02:19.748Z,13.57
2022-12-09T10:05:04.645Z,13.93
2022-12-09T10:07:40.118Z,13.25
2022-12-09T10:10:21.778Z,12.20
2022-12-09T10:13:09.477Z,12.68
2022-12-09T10:15:46.632Z,12.40
2022-12-09T10:18:21.927Z,13.13
2022-12-09T10:20:50.467Z,13.38
2022-12-09T10:23:19.184Z,13.65
2022-12-09T10:25:51.958Z,14.13
2022-12-09T10:28:23.118Z,12.88
2022-12-09T10:30:53.472Z,12.07
2022-12-09T10:33:28.490Z,12.70
2022-12-09T10:35:57.050Z,13.90
2022-12-09T10:38:26.724Z,12.82
2022-12-09T10:41:03.846Z,14.68
2022-12-09T10:43:37.453Z,14.70
2022-12-09T10:46:19.319Z,14.23
2022-12-09T10:49:01.545Z,14.97
2022-12-09T10:51:32.021Z,13.52
2022-12-09T10:54:02.711Z,14.52
2022-12-09T10:56:33.332Z,13.65
2022-12-09T10:59:11.810Z,14.75
2022-12-09T11:01:50.910Z,13.45
2022-12-09T11:04:24.881Z,12.60
2022-12-09T11:06:59.396Z,13.35
2022-12-09T11:09:31.323Z,12.20
2022-12-09T11:12:01.190Z,15.25
2022-12-09T11:14:35.291Z,13.73
2022-12-09T11:17:15.615Z,14.23
2022-12-09T11:19:48.911Z,13.98
2022-12-09T11:25:20.125Z,12.60
2022-12-09T11:27:52.419Z,14.63
2022-12-09T11:30:23.488Z,13.32
2022-12-09T11:33:02.251Z,13.93
2022-12-09T11:35:40.057Z,14.45
2022-12-09T11:38:18.653Z,13.95
2022-12-09T11:41:02.908Z,14.95
2022-12-09T11:43:34.664Z,15.45
2022-12-09T11:46:16.351Z,15.63
2022-12-09T11:48:50.754Z,16.05
2022-12-09T11:51:24.018Z,15.82
2022-12-09T11:54:01.776Z,16.80
2022-12-09T11:56:31.650Z,17.38
2022-12-09T11:59:04.251Z,16.60
2022-12-09T12:01:45.813Z,17.77
2022-12-09T12:04:16.179Z,15.75
2022-12-09T12:06:48.911Z,17.67
2022-12-09T12:09:23.707Z,20.45
2022-12-09T12:12:03.586Z,18.70
2022-12-09T12:14:32.192Z,19.45
2022-12-09T12:17:10.326Z,17.92
2022-12-09T12:19:40.818Z,19.52
2022-12-09T12:22:28.648Z,18.80
2022-12-09T12:25:17.328Z,19.73
2022-12-09T12:28:03.195Z,19.83
2022-12-09T12:30:41.469Z,21.10
2022-12-09T12:34:00.377Z,19.65
2022-12-09T12:36:29.098Z,19.23
2022-12-09T12:39:06.699Z,21.42
2022-12-09T12:41:42.685Z,20.55
2022-12-09T12:44:54.399Z,18.85
2022-12-09T12:47:30.424Z,20.98
2022-12-09T12:50:12.791Z,25.55
2022-12-09T12:52:55.906Z,21.50
2022-12-09T12:55:53.716Z,21.40
2022-12-09T12:58:50.269Z,19.48
2022-12-09T13:01:33.158Z,18.35
2022-12-09T13:04:18.639Z,17.55
2022-12-09T13:06:56.137Z,15.73
2022-12-09T13:09:30.459Z,14.88
2022-12-09T13:12:08.982Z,21.80
2022-12-09T13:14:41.951Z,14.30
2022-12-09T13:17:14.889Z,14.82
2022-12-09T13:19:45.594Z,13.90
2022-12-09T13:22:20.537Z,14.65
2022-12-09T13:25:00.109Z,13.18
2022-12-09T13:27:38.635Z,12.85
2022-12-09T13:30:14.385Z,13.75
2022-12-09T13:33:16.655Z,13.23
2022-12-09T13:35:54.862Z,12.10
2022-12-09T13:38:28.123Z,12.52
2022-12-09T13:43:27.530Z,11.77
2022-12-09T13:45:58.021Z,12.32
2022-12-09T13:48:48.636Z,11.43
2022-12-09T13:51:18.294Z,11.65
2022-12-09T13:53:53.648Z,10.55
2022-12-09T13:56:26.831Z,10.70
2022-12-09T13:59:40.098Z,11.68
2022-12-09T14:02:21.368Z,12.53
2022-12-09T14:05:00.442Z,12.15
2022-12-09T14:07:35.369Z,10.68
2022-12-09T14:10:04.689Z,11.80
2022-12-09T14:13:03.945Z,11.35
2022-12-09T14:15:37.789Z,12.13
2022-12-09T14:18:28.791Z,12.90
2022-12-09T14:21:31.148Z,13.13
2022-12-09T14:24:33.783Z,12.70
2022-12-09T14:27:20.754Z,11.40
2022-12-09T14:29:52.545Z,13.02
2022-12-09T14:32:23.146Z,12.43
2022-12-09T14:35:06.058Z,12.45
2022-12-09T14:38:04.604Z,12.15
2022-12-09T14:40:53.556Z,12.07
2022-12-09T14:43:50.461Z,12.75
2022-12-09T14:46:25.425Z,12.65
2022-12-09T14:48:57.500Z,12.85
2022-12-09T14:51:34.770Z,12.30
2022-12-09T14:54:07.284Z,12.75
2022-12-09T14:56:36.056Z,11.85
2022-12-09T14:59:07.661Z,12.48
2022-12-09T15:01:52.546Z,11.57
2022-12-09T15:04:30.979Z,13.10
2022-12-09T15:07:11.485Z,14.75
2022-12-09T15:09:48.132Z,12.57
2022-12-09T15:12:16.309Z,12.43
2022-12-09T15:14:45.721Z,13.85
2022-12-09T15:17:28.851Z,12.98
2022-12-09T15:20:01.037Z,13.75
2022-12-09T15:22:33.361Z,13.40
2022-12-09T15:25:02.461Z,13.88
2022-12-09T15:27:31.497Z,13.82
2022-12-09T15:30:14.888Z,14.32
2022-12-09T15:35:18.631Z,13.90
2022-12-09T15:37:50.593Z,14.45
2022-12-09T15:40:22.352Z,15.60
2022-12-09T15:42:53.648Z,13.73
2022-12-09T15:45:24.290Z,14.63
2022-12-09T15:47:57.749Z,14.20
2022-12-09T15:50:30.705Z,13.40
2022-12-09T15:53:05.524Z,13.20
2022-12-09T15:55:38.554Z,13.82
2022-12-09T15:58:08.763Z,16.40
2022-12-09T16:00:40.809Z,13.48
2022-12-09T16:03:09.368Z,14.30
2022-12-09T16:05:41.748Z,14.38
2022-12-09T16:08:11.749Z,14.73
2022-12-09T16:10:47.665Z,15.15
2022-12-09T16:13:17.676Z,13.85
2022-12-09T16:15:51.808Z,15.02
2022-12-09T16:18:23.331Z,16.58
2022-12-09T16:21:16.149Z,15.55
2022-12-09T16:23:48.170Z,12.27
2022-12-09T16:26:22.297Z,12.77
2022-12-09T16:28:56.813Z,14.18
2022-12-09T16:31:25.151Z,14.00
2022-12-09T16:33:53.490Z,14.45
2022-12-09T16:36:25.147Z,14.13
2022-12-09T16:39:27.875Z,13.77
2022-12-09T16:41:58.699Z,14.27
2022-12-09T16:44:30.837Z,13.00
2022-12-09T16:47:20.859Z,13.63
2022-12-09T16:49:49.645Z,13.52
2022-12-09T16:52:21.279Z,14.27
2022-12-09T16:54:52.031Z,14.00
2022-12-09T16:57:21.221Z,13.65
2022-12-09T16:59:49.291Z,14.15
2022-12-09T17:02:22.366Z,14.90
2022-12-09T17:07:18.493Z,13.65
2022-12-09T17:09:46.388Z,14.15
2022-12-09T17:12:15.613Z,14.05
2022-12-09T17:14:43.601Z,15.15
2022-12-09T17:17:11.463Z,15.50
2022-12-09T17:19:41.695Z,15.68
2022-12-09T17:22:09.889Z,14.95
2022-12-09T17:24:37.859Z,14.02
2022-12-09T17:27:05.690Z,13.88
2022-12-09T17:29:34.895Z,13.25
2022-12-09T17:32:02.786Z,12.20
2022-12-09T17:34:30.654Z,13.32
2022-12-09T17:36:58.753Z,13.38
2022-12-09T17:39:26.628Z,14.02
2022-12-09T17:41:54.542Z,13.93
2022-12-09T17:44:22.609Z,14.00
2022-12-09T17:46:51.777Z,13.43
2022-12-09T17:49:20.933Z,13.65
2022-12-09T17:51:49.151Z,14.27
2022-12-09T17:54:16.988Z,14.65
2022-12-09T17:56:46.565Z,13.45
2022-12-09T17:59:16.771Z,14.55
2022-12-09T18:01:46.225Z,13.13
2022-12-09T18:04:16.225Z,13.77
2022-12-09T18:06:45.535Z,13.68
2022-12-09T18:09:15.539Z,14.40
2022-12-09T18:11:44.121Z,13.43
2022-12-09T18:14:12.003Z,12.85
2022-12-09T18:16:40.311Z,12.68
2022-12-09T18:19:11.165Z,12.52
2022-12-09T18:21:40.604Z,11.10
2022-12-09T18:24:09.288Z,12.65
2022-12-09T18:26:41.548Z,12.85
2022-12-09T18:29:10.556Z,12.68
2022-12-09T18:31:38.540Z,11.43
2022-12-09T18:34:06.534Z,11.63
2022-12-09T18:36:34.513Z,13.02
2022-12-09T18:39:04.199Z,12.30
2022-12-09T18:41:32.621Z,11.65
2022-12-09T18:44:04.016Z,10.45
2022-12-09T18:46:33.789Z,11.43
2022-12-09T18:49:03.692Z,10.98
2022-12-09T18:51:32.851Z,11.23
2022-12-09T18:54:02.122Z,10.60
2022-12-09T18:56:32.066Z,10.82
2022-12-09T18:59:09.019Z,10.98
2022-12-09T19:01:40.609Z,10.52
2022-12-09T19:04:12.514Z,10.82
2022-12-09T19:06:41.824Z,10.57
2022-12-09T19:09:13.181Z,10.88
2022-12-09T19:11:43.100Z,11.18
2022-12-09T19:14:11.556Z,10.30
2022-12-09T19:16:39.782Z,9.35
2022-12-09T19:19:10.453Z,10.75
2022-12-09T19:21:39.766Z,9.93
2022-12-09T19:24:08.863Z,9.70
2022-12-09T19:26:37.633Z,11.07
2022-12-09T19:29:08.868Z,10.27
2022-12-09T19:31:39.920Z,10.85
2022-12-09T19:34:11.978Z,10.70
2022-12-09T19:36:39.932Z,10.00
2022-12-09T19:39:09.305Z,10.43
2022-12-09T19:41:37.886Z,9.50
2022-12-09T19:44:08.553Z,10.95
2022-12-09T19:46:38.437Z,9.32
2022-12-09T19:49:06.534Z,10.77
2022-12-09T19:51:34.877Z,9.88
2022-12-09T19:54:03.188Z,8.57
2022-12-09T19:56:31.501Z,8.95
2022-12-09T19:59:00.711Z,9.10
2022-12-09T20:01:32.562Z,9.48
2022-12-09T20:04:19.041Z,9.77
2022-12-09T20:06:51.630Z,9.65
2022-12-09T20:09:24.353Z,10.05
2022-12-09T20:11:52.883Z,10.77
2022-12-09T20:14:21.188Z,9.70
2022-12-09T20:16:50.520Z,9.60
2022-12-09T20:19:19.761Z,9.60
2022-12-09T20:21:47.691Z,10.75
2022-12-09T20:24:15.597Z,10.45
2022-12-09T20:26:44.291Z,10.10
2022-12-09T20:29:12.306Z,9.82
2022-12-09T20:31:41.029Z,10.05
2022-12-09T20:34:13.363Z,10.10
2022-12-09T20:36:43.294Z,10.23
2022-12-09T20:39:14.960Z,9.85
2022-12-09T20:41:44.435Z,9.52
2022-12-09T20:44:13.623Z,10.15
2022-12-09T20:46:45.218Z,10.48
2022-12-09T20:49:14.539Z,10.70
2022-12-09T20:51:45.112Z,10.32
2022-12-09T20:54:13.090Z,10.82
2022-12-09T20:56:41.138Z,10.73
2022-12-09T20:59:10.558Z,10.75
2022-12-09T21:01:39.233Z,9.45
2022-12-09T21:04:08.439Z,10.88
2022-12-09T21:06:40.104Z,9.73
2022-12-09T21:09:10.290Z,9.27
2022-12-09T21:11:39.459Z,9.57
2022-12-09T21:14:07.983Z,9.73
2022-12-09T21:16:38.751Z,9.30
2022-12-09T21:19:10.304Z,9.98
2022-12-09T21:21:41.400Z,9.60
2022-12-09T21:24:11.767Z,9.23
2022-12-09T21:26:40.347Z,10.35
2022-12-09T21:29:09.134Z,9.98
2022-12-09T21:31:38.862Z,9.90
2022-12-09T21:34:08.498Z,9.93
2022-12-09T21:36:38.656Z,9.73
2022-12-09T21:39:09.049Z,10.38
2022-12-09T21:41:38.293Z,9.32
2022-12-09T21:44:07.427Z,9.95
2022-12-09T21:46:37.418Z,10.30
2022-12-09T21:49:07.375Z,9.90
2022-12-09T21:51:36.422Z,9.85
2022-12-09T21:54:04.814Z,10.30
2022-12-09T21:56:35.738Z,9.98
2022-12-09T21:59:05.974Z,8.93
2022-12-09T22:01:35.754Z,9.25
2022-12-09T22:04:05.735Z,10.70
2022-12-09T22:06:34.015Z,10.57
2022-12-09T22:09:03.610Z,9.63
2022-12-09T22:11:33.037Z,10.15
2022-12-09T22:14:02.841Z,10.48
2022-12-09T22:16:33.205Z,10.82
2022-12-09T22:19:03.057Z,9.90
2022-12-09T22:21:33.656Z,9.80
2022-12-09T22:24:04.440Z,9.73
2022-12-09T22:26:32.884Z,10.13
2022-12-09T22:29:03.503Z,9.80
2022-12-09T22:31:33.338Z,10.40
2022-12-09T22:34:03.203Z,9.57
2022-12-09T22:36:31.345Z,9.35
2022-12-09T22:38:59.309Z,9.32
2022-12-09T22:41:29.852Z,10.25
2022-12-09T22:43:58.586Z,8.43
2022-12-09T22:46:29.574Z,9.20
2022-12-09T22:48:58.255Z,10.25
2022-12-09T22:51:28.070Z,9.77
2022-12-09T22:53:57.816Z,9.27
2022-12-09T22:56:26.833Z,9.80
2022-12-09T22:58:55.243Z,9.52
2022-12-09T23:01:25.698Z,9.50
2022-12-09T23:03:55.942Z,8.70
2022-12-09T23:06:24.526Z,9.35
2022-12-09T23:08:52.725Z,9.45
2022-12-09T23:11:22.569Z,9.45
2022-12-09T23:13:51.210Z,9.07
2022-12-09T23:16:21.846Z,9.30
2022-12-09T23:18:51.217Z,9.93
2022-12-09T23:21:22.584Z,9.38
2022-12-09T23:23:53.393Z,9.10
2022-12-09T23:26:23.081Z,8.75
2022-12-09T23:28:52.565Z,8.73
2022-12-09T23:31:22.957Z,10.13
2022-12-09T23:33:52.458Z,8.43
2022-12-09T23:36:22.913Z,8.95
2022-12-09T23:38:52.183Z,8.93
2022-12-09T23:41:22.829Z,8.18
2022-12-09T23:43:51.889Z,8.80
2022-12-09T23:46:21.574Z,8.95
2022-12-09T23:48:51.005Z,9.00
2022-12-09T23:51:22.299Z,8.77
2022-12-09T23:53:52.079Z,8.95
2022-12-09T23:56:22.133Z,8.30
2022-12-09T23:58:55.078Z,8.70
